Terminal Aerodrome Forecast
Issued by NWS

Home | Current Version | Previous Version | Text Only | Print | Product List | Glossary Off
Versions: 1 2 3 4 5 6 7 8 9 10 11 12 13 14 15 16 17 18 19 20 21 22 23
000 FTUS41 KBOX 201729 TAFBED TAF KBED 201729Z 2018/2118 25015G28KT P6SM FEW050 FM202300 25008KT P6SM SCT250 FM210500 27007KT P6SM FEW250 FM211500 28011G23KT P6SM FEW250=

USA.gov is the U.S. government's official web portal to all federal, state and local government web resources and services.